sensor_id;sensor_type;location;lat;lon;timestamp;pressure;altitude;pressure_sealevel;temperature;humidity
61292;BME280;47165;42.664;23.368;2023-10-13T00:02:01;95522.44;;;13.93;58.77
61292;BME280;47165;42.664;23.368;2023-10-13T00:04:30;95518.47;;;14.00;58.14
61292;BME280;47165;42.664;23.368;2023-10-13T00:06:58;95518.03;;;14.07;56.48
61292;BME280;47165;42.664;23.368;2023-10-13T00:09:28;95513.03;;;14.17;55.95
61292;BME280;47165;42.664;23.368;2023-10-13T00:12:06;95518.38;;;14.16;55.37
61292;BME280;47165;42.664;23.368;2023-10-13T00:14:39;95511.06;;;14.06;55.55
61292;BME280;47165;42.664;23.368;2023-10-13T00:17:11;95507.06;;;14.01;54.80
61292;BME280;47165;42.664;23.368;2023-10-13T00:19:41;95510.44;;;14.03;54.89
61292;BME280;47165;42.664;23.368;2023-10-13T00:22:13;95501.16;;;13.97;55.27
61292;BME280;47165;42.664;23.368;2023-10-13T00:24:42;95499.19;;;14.01;55.42
61292;BME280;47165;42.664;23.368;2023-10-13T00:27:20;95491.88;;;13.92;54.93
61292;BME280;47165;42.664;23.368;2023-10-13T00:29:59;95502.72;;;14.00;54.92
61292;BME280;47165;42.664;23.368;2023-10-13T00:32:45;95503.13;;;13.94;55.46
61292;BME280;47165;42.664;23.368;2023-10-13T00:35:21;95505.94;;;13.91;55.51
61292;BME280;47165;42.664;23.368;2023-10-13T00:37:52;95515.41;;;13.93;55.38
61292;BME280;47165;42.664;23.368;2023-10-13T00:40:21;95511.19;;;13.91;55.44
61292;BME280;47165;42.664;23.368;2023-10-13T00:43:11;95510.53;;;13.87;55.13
61292;BME280;47165;42.664;23.368;2023-10-13T00:45:55;95508.75;;;13.87;55.27
61292;BME280;47165;42.664;23.368;2023-10-13T00:48:44;95511.56;;;13.84;55.04
61292;BME280;47165;42.664;23.368;2023-10-13T00:51:20;95513.25;;;13.85;54.80
61292;BME280;47165;42.664;23.368;2023-10-13T00:54:04;95508.19;;;13.82;55.70
61292;BME280;47165;42.664;23.368;2023-10-13T00:56:41;95509.59;;;13.88;55.11
61292;BME280;47165;42.664;23.368;2023-10-13T00:59:15;95510.06;;;13.80;55.43
61292;BME280;47165;42.664;23.368;2023-10-13T01:01:41;95509.97;;;13.67;55.90
61292;BME280;47165;42.664;23.368;2023-10-13T01:04:15;95511.47;;;13.72;54.72
61292;BME280;47165;42.664;23.368;2023-10-13T01:06:41;95509.22;;;13.65;55.34
61292;BME280;47165;42.664;23.368;2023-10-13T01:09:08;95513.72;;;13.63;56.36
61292;BME280;47165;42.664;23.368;2023-10-13T01:11:45;95508.56;;;13.47;57.75
61292;BME280;47165;42.664;23.368;2023-10-13T01:14:22;95512.41;;;13.42;58.16
61292;BME280;47165;42.664;23.368;2023-10-13T01:16:49;95514.94;;;13.43;56.85
61292;BME280;47165;42.664;23.368;2023-10-13T01:19:19;95527.66;;;13.35;56.46
61292;BME280;47165;42.664;23.368;2023-10-13T01:21:51;95518.84;;;13.36;56.81
61292;BME280;47165;42.664;23.368;2023-10-13T01:24:35;95519.22;;;13.30;57.69
61292;BME280;47165;42.664;23.368;2023-10-13T01:27:01;95518.00;;;13.36;58.02
61292;BME280;47165;42.664;23.368;2023-10-13T01:29:47;95520.94;;;13.45;57.66
61292;BME280;47165;42.664;23.368;2023-10-13T01:32:22;95517.72;;;13.40;56.99
61292;BME280;47165;42.664;23.368;2023-10-13T01:34:49;95509.78;;;13.42;57.52
61292;BME280;47165;42.664;23.368;2023-10-13T01:37:15;95519.91;;;13.48;57.31
61292;BME280;47165;42.664;23.368;2023-10-13T01:39:45;95516.53;;;13.46;56.67
61292;BME280;47165;42.664;23.368;2023-10-13T01:42:17;95516.91;;;13.40;56.37
61292;BME280;47165;42.664;23.368;2023-10-13T01:44:47;95510.16;;;13.20;55.94
61292;BME280;47165;42.664;23.368;2023-10-13T01:47:13;95527.56;;;13.37;55.93
61292;BME280;47165;42.664;23.368;2023-10-13T01:49:41;95525.13;;;13.34;56.58
61292;BME280;47165;42.664;23.368;2023-10-13T01:52:13;95525.03;;;13.35;57.00
61292;BME280;47165;42.664;23.368;2023-10-13T01:54:42;95525.03;;;13.35;56.56
61292;BME280;47165;42.664;23.368;2023-10-13T01:57:12;95525.53;;;13.26;56.17
61292;BME280;47165;42.664;23.368;2023-10-13T01:59:48;95525.50;;;13.12;56.29
61292;BME280;47165;42.664;23.368;2023-10-13T02:02:14;95521.22;;;13.11;56.73
61292;BME280;47165;42.664;23.368;2023-10-13T02:04:42;95516.38;;;13.19;56.80
61292;BME280;47165;42.664;23.368;2023-10-13T02:07:17;95517.47;;;13.15;57.36
61292;BME280;47165;42.664;23.368;2023-10-13T02:09:43;95510.44;;;13.15;56.58
61292;BME280;47165;42.664;23.368;2023-10-13T02:12:09;95517.28;;;13.18;56.32
61292;BME280;47165;42.664;23.368;2023-10-13T02:14:56;95512.03;;;13.18;56.16
61292;BME280;47165;42.664;23.368;2023-10-13T02:17:26;95510.91;;;13.07;56.18
61292;BME280;47165;42.664;23.368;2023-10-13T02:19:52;95510.22;;;13.04;56.84
61292;BME280;47165;42.664;23.368;2023-10-13T02:22:19;95515.75;;;12.99;56.64
61292;BME280;47165;42.664;23.368;2023-10-13T02:24:55;95506.97;;;13.00;57.24
61292;BME280;47165;42.664;23.368;2023-10-13T02:27:27;95500.78;;;13.01;56.26
61292;BME280;47165;42.664;23.368;2023-10-13T02:29:53;95514.16;;;12.97;56.58
61292;BME280;47165;42.664;23.368;2023-10-13T02:32:24;95516.94;;;12.94;56.12
61292;BME280;47165;42.664;23.368;2023-10-13T02:34:52;95510.28;;;12.88;57.08
61292;BME280;47165;42.664;23.368;2023-10-13T02:37:19;95515.69;;;12.85;57.24
61292;BME280;47165;42.664;23.368;2023-10-13T02:39:45;95505.41;;;12.82;57.17
61292;BME280;47165;42.664;23.368;2023-10-13T02:42:10;95506.31;;;12.81;57.15
61292;BME280;47165;42.664;23.368;2023-10-13T02:44:51;95506.06;;;12.85;57.39
61292;BME280;47165;42.664;23.368;2023-10-13T02:47:21;95514.72;;;12.72;56.89
61292;BME280;47165;42.664;23.368;2023-10-13T02:49:49;95523.94;;;12.63;57.03
61292;BME280;47165;42.664;23.368;2023-10-13T02:52:15;95524.03;;;12.61;57.73
61292;BME280;47165;42.664;23.368;2023-10-13T02:54:42;95532.75;;;12.62;58.01
61292;BME280;47165;42.664;23.368;2023-10-13T02:57:13;95529.28;;;12.61;57.84
61292;BME280;47165;42.664;23.368;2023-10-13T02:59:41;95530.53;;;12.54;58.92
61292;BME280;47165;42.664;23.368;2023-10-13T03:02:22;95529.44;;;12.42;59.58
61292;BME280;47165;42.664;23.368;2023-10-13T03:04:54;95533.00;;;12.41;60.36
61292;BME280;47165;42.664;23.368;2023-10-13T03:07:34;95536.31;;;12.45;59.19
61292;BME280;47165;42.664;23.368;2023-10-13T03:10:03;95532.75;;;12.46;58.26
61292;BME280;47165;42.664;23.368;2023-10-13T03:12:36;95528.88;;;12.53;58.23
61292;BME280;47165;42.664;23.368;2023-10-13T03:15:02;95532.59;;;12.49;58.76
61292;BME280;47165;42.664;23.368;2023-10-13T03:17:45;95535.44;;;12.44;57.96
61292;BME280;47165;42.664;23.368;2023-10-13T03:20:17;95537.06;;;12.47;59.47
61292;BME280;47165;42.664;23.368;2023-10-13T03:22:48;95539.78;;;12.45;58.34
61292;BME280;47165;42.664;23.368;2023-10-13T03:25:18;95551.59;;;12.37;58.04
61292;BME280;47165;42.664;23.368;2023-10-13T03:27:52;95537.75;;;12.35;58.49
61292;BME280;47165;42.664;23.368;2023-10-13T03:30:19;95520.53;;;12.31;58.63
61292;BME280;47165;42.664;23.368;2023-10-13T03:32:47;95542.81;;;12.38;58.25
61292;BME280;47165;42.664;23.368;2023-10-13T03:35:20;95540.38;;;12.35;58.64
61292;BME280;47165;42.664;23.368;2023-10-13T03:38:03;95535.38;;;12.30;58.98
61292;BME280;47165;42.664;23.368;2023-10-13T03:40:29;95540.88;;;12.25;60.19
61292;BME280;47165;42.664;23.368;2023-10-13T03:42:57;95534.94;;;12.22;61.12
61292;BME280;47165;42.664;23.368;2023-10-13T03:45:41;95529.91;;;12.35;60.86
61292;BME280;47165;42.664;23.368;2023-10-13T03:48:12;95526.69;;;12.30;61.00
61292;BME280;47165;42.664;23.368;2023-10-13T03:50:57;95522.03;;;12.35;60.95
61292;BME280;47165;42.664;23.368;2023-10-13T03:53:32;95520.19;;;12.37;60.62
61292;BME280;47165;42.664;23.368;2023-10-13T03:56:00;95507.31;;;12.32;59.29
61292;BME280;47165;42.664;23.368;2023-10-13T03:58:40;95510.19;;;12.27;59.35
61292;BME280;47165;42.664;23.368;2023-10-13T04:01:13;95495.34;;;12.28;60.22
61292;BME280;47165;42.664;23.368;2023-10-13T04:03:43;95500.50;;;12.30;60.50
61292;BME280;47165;42.664;23.368;2023-10-13T04:06:25;95498.06;;;12.26;59.04
61292;BME280;47165;42.664;23.368;2023-10-13T04:09:13;95496.78;;;12.18;58.96
61292;BME280;47165;42.664;23.368;2023-10-13T04:11:54;95495.19;;;12.15;58.93
61292;BME280;47165;42.664;23.368;2023-10-13T04:14:40;95498.06;;;12.11;59.23
61292;BME280;47165;42.664;23.368;2023-10-13T04:17:18;95495.34;;;12.12;59.43
61292;BME280;47165;42.664;23.368;2023-10-13T04:19:53;95497.38;;;12.23;59.14
61292;BME280;47165;42.664;23.368;2023-10-13T04:22:31;95500.00;;;12.07;58.39
61292;BME280;47165;42.664;23.368;2023-10-13T04:25:13;95509.97;;;12.00;58.83
61292;BME280;47165;42.664;23.368;2023-10-13T04:27:59;95509.69;;;12.05;59.00
61292;BME280;47165;42.664;23.368;2023-10-13T04:30:49;95506.81;;;12.10;59.13
61292;BME280;47165;42.664;23.368;2023-10-13T04:33:21;95517.63;;;12.03;59.35
61292;BME280;47165;42.664;23.368;2023-10-13T04:36:05;95522.84;;;12.03;59.29
61292;BME280;47165;42.664;23.368;2023-10-13T04:38:50;95519.66;;;11.98;59.24
61292;BME280;47165;42.664;23.368;2023-10-13T04:44:18;95533.34;;;12.03;60.00
61292;BME280;47165;42.664;23.368;2023-10-13T04:47:04;95531.31;;;12.08;60.41
61292;BME280;47165;42.664;23.368;2023-10-13T04:49:31;95538.34;;;12.08;60.70
61292;BME280;47165;42.664;23.368;2023-10-13T04:52:04;95534.34;;;12.01;60.14
61292;BME280;47165;42.664;23.368;2023-10-13T04:54:34;95541.19;;;12.03;60.36
61292;BME280;47165;42.664;23.368;2023-10-13T04:57:35;95550.75;;;12.04;60.09
61292;BME280;47165;42.664;23.368;2023-10-13T05:00:18;95557.56;;;12.07;60.49
61292;BME280;47165;42.664;23.368;2023-10-13T05:02:46;95563.41;;;12.12;60.22
61292;BME280;47165;42.664;23.368;2023-10-13T05:05:43;95556.72;;;12.06;59.28
61292;BME280;47165;42.664;23.368;2023-10-13T05:08:28;95563.75;;;12.06;59.75
61292;BME280;47165;42.664;23.368;2023-10-13T05:11:12;95571.59;;;12.06;60.22
61292;BME280;47165;42.664;23.368;2023-10-13T05:13:56;95564.66;;;12.05;60.33
61292;BME280;47165;42.664;23.368;2023-10-13T05:16:40;95570.50;;;12.10;61.17
61292;BME280;47165;42.664;23.368;2023-10-13T05:19:24;95585.56;;;12.22;60.81
61292;BME280;47165;42.664;23.368;2023-10-13T05:22:09;95578.03;;;12.16;59.92
61292;BME280;47165;42.664;23.368;2023-10-13T05:24:53;95583.50;;;12.12;59.69
61292;BME280;47165;42.664;23.368;2023-10-13T05:27:37;95589.59;;;12.12;59.93
61292;BME280;47165;42.664;23.368;2023-10-13T05:30:21;95584.38;;;12.12;61.30
61292;BME280;47165;42.664;23.368;2023-10-13T05:33:06;95590.03;;;12.20;61.42
61292;BME280;47165;42.664;23.368;2023-10-13T05:35:50;95594.16;;;12.24;60.28
61292;BME280;47165;42.664;23.368;2023-10-13T05:38:35;95594.31;;;12.21;61.21
61292;BME280;47165;42.664;23.368;2023-10-13T05:41:19;95593.66;;;12.34;61.17
61292;BME280;47165;42.664;23.368;2023-10-13T05:44:04;95590.72;;;12.40;60.94
61292;BME280;47165;42.664;23.368;2023-10-13T05:46:48;95601.44;;;12.51;61.35
61292;BME280;47165;42.664;23.368;2023-10-13T05:49:32;95600.44;;;12.54;61.13
61292;BME280;47165;42.664;23.368;2023-10-13T05:52:30;95595.88;;;12.57;61.05
61292;BME280;47165;42.664;23.368;2023-10-13T05:55:14;95601.53;;;12.65;61.27
61292;BME280;47165;42.664;23.368;2023-10-13T05:57:58;95602.28;;;12.67;62.04
61292;BME280;47165;42.664;23.368;2023-10-13T06:00:43;95594.66;;;12.79;61.60
61292;BME280;47165;42.664;23.368;2023-10-13T06:03:26;95590.78;;;12.86;60.97
61292;BME280;47165;42.664;23.368;2023-10-13T06:06:11;95597.44;;;12.92;61.46
61292;BME280;47165;42.664;23.368;2023-10-13T06:08:55;95605.47;;;13.04;60.66
61292;BME280;47165;42.664;23.368;2023-10-13T06:11:39;95608.50;;;13.13;60.61
61292;BME280;47165;42.664;23.368;2023-10-13T06:14:23;95613.47;;;13.17;60.32
61292;BME280;47165;42.664;23.368;2023-10-13T06:17:07;95606.09;;;13.24;60.50
61292;BME280;47165;42.664;23.368;2023-10-13T06:19:51;95614.78;;;13.24;60.77
61292;BME280;47165;42.664;23.368;2023-10-13T06:22:36;95615.41;;;13.30;60.45
61292;BME280;47165;42.664;23.368;2023-10-13T06:25:20;95604.09;;;13.29;60.21
61292;BME280;47165;42.664;23.368;2023-10-13T06:28:05;95617.88;;;13.47;59.99
61292;BME280;47165;42.664;23.368;2023-10-13T06:30:57;95615.66;;;13.55;59.88
61292;BME280;47165;42.664;23.368;2023-10-13T06:33:24;95625.22;;;13.56;59.99
61292;BME280;47165;42.664;23.368;2023-10-13T06:35:56;95624.03;;;13.62;59.78
61292;BME280;47165;42.664;23.368;2023-10-13T06:38:22;95613.97;;;13.54;60.31
61292;BME280;47165;42.664;23.368;2023-10-13T06:40:49;95624.78;;;13.64;60.51
61292;BME280;47165;42.664;23.368;2023-10-13T06:43:16;95627.59;;;13.75;59.92
61292;BME280;47165;42.664;23.368;2023-10-13T06:45:43;95635.03;;;13.83;59.95
61292;BME280;47165;42.664;23.368;2023-10-13T06:48:17;95627.63;;;13.89;59.79
61292;BME280;47165;42.664;23.368;2023-10-13T06:50:50;95623.34;;;14.03;59.26
61292;BME280;47165;42.664;23.368;2023-10-13T06:53:21;95614.44;;;14.05;59.10
61292;BME280;47165;42.664;23.368;2023-10-13T06:55:49;95623.50;;;14.14;59.17
61292;BME280;47165;42.664;23.368;2023-10-13T06:58:18;95619.59;;;14.21;58.93
61292;BME280;47165;42.664;23.368;2023-10-13T07:00:50;95614.88;;;14.26;58.93
61292;BME280;47165;42.664;23.368;2023-10-13T07:03:22;95613.75;;;14.31;58.78
61292;BME280;47165;42.664;23.368;2023-10-13T07:05:51;95604.56;;;14.38;58.64
61292;BME280;47165;42.664;23.368;2023-10-13T07:08:18;95580.34;;;14.33;58.96
61292;BME280;47165;42.664;23.368;2023-10-13T07:10:52;95597.41;;;14.54;58.48
61292;BME280;47165;42.664;23.368;2023-10-13T07:13:47;95603.06;;;14.62;58.13
61292;BME280;47165;42.664;23.368;2023-10-13T07:16:17;95583.16;;;14.58;58.34
61292;BME280;47165;42.664;23.368;2023-10-13T07:18:44;95595.31;;;14.74;58.36
61292;BME280;47165;42.664;23.368;2023-10-13T07:21:20;95600.00;;;14.83;57.96
61292;BME280;47165;42.664;23.368;2023-10-13T07:24:04;95608.88;;;14.95;57.81
61292;BME280;47165;42.664;23.368;2023-10-13T07:26:38;95601.72;;;14.97;57.65
61292;BME280;47165;42.664;23.368;2023-10-13T07:29:23;95605.16;;;15.12;57.74
61292;BME280;47165;42.664;23.368;2023-10-13T07:31:51;95606.25;;;15.22;57.35
61292;BME280;47165;42.664;23.368;2023-10-13T07:34:29;95600.38;;;15.31;57.11
61292;BME280;47165;42.664;23.368;2023-10-13T07:37:06;95598.28;;;15.36;56.54
61292;BME280;47165;42.664;23.368;2023-10-13T07:39:38;95599.56;;;15.43;56.08
61292;BME280;47165;42.664;23.368;2023-10-13T07:42:06;95590.09;;;15.54;56.08
61292;BME280;47165;42.664;23.368;2023-10-13T07:44:40;95588.53;;;15.64;56.02
61292;BME280;47165;42.664;23.368;2023-10-13T07:47:12;95591.94;;;15.79;55.61
61292;BME280;47165;42.664;23.368;2023-10-13T07:49:43;95585.31;;;15.86;55.31
61292;BME280;47165;42.664;23.368;2023-10-13T07:52:11;95592.28;;;16.00;55.14
61292;BME280;47165;42.664;23.368;2023-10-13T07:54:50;95592.47;;;16.09;54.69
61292;BME280;47165;42.664;23.368;2023-10-13T07:57:46;95573.50;;;16.17;54.43
61292;BME280;47165;42.664;23.368;2023-10-13T08:00:26;95578.97;;;16.27;54.07
61292;BME280;47165;42.664;23.368;2023-10-13T08:03:11;95585.03;;;16.40;53.68
61292;BME280;47165;42.664;23.368;2023-10-13T08:05:41;95585.47;;;16.47;53.87
61292;BME280;47165;42.664;23.368;2023-10-13T08:08:27;95573.91;;;16.61;53.46
61292;BME280;47165;42.664;23.368;2023-10-13T08:11:13;95560.47;;;16.77;53.53
61292;BME280;47165;42.664;23.368;2023-10-13T08:13:58;95574.88;;;16.97;52.19
61292;BME280;47165;42.664;23.368;2023-10-13T08:16:28;95568.81;;;17.07;52.20
61292;BME280;47165;42.664;23.368;2023-10-13T08:19:14;95564.44;;;17.19;51.73
61292;BME280;47165;42.664;23.368;2023-10-13T08:21:56;95571.09;;;17.36;50.43
61292;BME280;47165;42.664;23.368;2023-10-13T08:24:26;95578.13;;;17.60;50.55
61292;BME280;47165;42.664;23.368;2023-10-13T08:27:07;95578.41;;;17.79;50.46
61292;BME280;47165;42.664;23.368;2023-10-13T08:29:43;95577.03;;;17.86;49.14
61292;BME280;47165;42.664;23.368;2023-10-13T08:32:29;95592.53;;;18.14;49.29
61292;BME280;47165;42.664;23.368;2023-10-13T08:34:56;95596.03;;;18.25;49.02
61292;BME280;47165;42.664;23.368;2023-10-13T08:37:23;95585.69;;;18.34;48.42
61292;BME280;47165;42.664;23.368;2023-10-13T08:39:54;95578.97;;;18.52;47.92
61292;BME280;47165;42.664;23.368;2023-10-13T08:42:31;95567.16;;;18.67;48.14
61292;BME280;47165;42.664;23.368;2023-10-13T08:45:13;95565.09;;;18.82;47.22
61292;BME280;47165;42.664;23.368;2023-10-13T08:47:57;95577.19;;;19.07;47.07
61292;BME280;47165;42.664;23.368;2023-10-13T08:50:49;95570.63;;;19.23;46.09
61292;BME280;47165;42.664;23.368;2023-10-13T08:53:24;95568.66;;;19.36;46.37
61292;BME280;47165;42.664;23.368;2023-10-13T08:56:12;95561.25;;;19.51;46.33
61292;BME280;47165;42.664;23.368;2023-10-13T08:59:11;95563.78;;;19.53;45.72
61292;BME280;47165;42.664;23.368;2023-10-13T09:02:02;95563.69;;;19.64;45.64
61292;BME280;47165;42.664;23.368;2023-10-13T09:04:44;95572.09;;;19.69;45.39
61292;BME280;47165;42.664;23.368;2023-10-13T09:07:11;95570.63;;;19.76;44.13
61292;BME280;47165;42.664;23.368;2023-10-13T09:09:49;95557.56;;;19.84;43.54
61292;BME280;47165;42.664;23.368;2023-10-13T09:15:10;95551.69;;;20.02;43.08
61292;BME280;47165;42.664;23.368;2023-10-13T09:17:47;95560.31;;;20.25;42.56
61292;BME280;47165;42.664;23.368;2023-10-13T09:20:35;95553.75;;;19.98;42.60
61292;BME280;47165;42.664;23.368;2023-10-13T09:23:12;95556.13;;;20.22;42.76
61292;BME280;47165;42.664;23.368;2023-10-13T09:25:42;95553.69;;;20.50;41.99
61292;BME280;47165;42.664;23.368;2023-10-13T09:28:27;95542.34;;;20.79;41.64
61292;BME280;47165;42.664;23.368;2023-10-13T09:31:00;95548.25;;;21.12;41.79
61292;BME280;47165;42.664;23.368;2023-10-13T09:33:29;95533.31;;;21.30;40.60
61292;BME280;47165;42.664;23.368;2023-10-13T09:38:50;95521.31;;;21.45;39.98
61292;BME280;47165;42.664;23.368;2023-10-13T09:41:42;95539.03;;;21.74;39.76
61292;BME280;47165;42.664;23.368;2023-10-13T09:44:08;95526.69;;;21.93;39.43
61292;BME280;47165;42.664;23.368;2023-10-13T09:46:37;95516.38;;;22.17;39.22
61292;BME280;47165;42.664;23.368;2023-10-13T09:49:13;95524.25;;;22.46;38.44
61292;BME280;47165;42.664;23.368;2023-10-13T09:52:01;95518.09;;;22.74;37.48
61292;BME280;47165;42.664;23.368;2023-10-13T09:54:38;95515.00;;;22.96;37.77
61292;BME280;47165;42.664;23.368;2023-10-13T09:57:16;95513.13;;;23.06;36.32
61292;BME280;47165;42.664;23.368;2023-10-13T10:00:18;95517.78;;;23.22;36.46
61292;BME280;47165;42.664;23.368;2023-10-13T10:03:14;95498.72;;;23.35;36.16
61292;BME280;47165;42.664;23.368;2023-10-13T10:05:54;95500.22;;;23.56;36.70
61292;BME280;47165;42.664;23.368;2023-10-13T10:08:29;95498.16;;;23.67;34.85
61292;BME280;47165;42.664;23.368;2023-10-13T10:11:29;95493.66;;;23.68;33.64
61292;BME280;47165;42.664;23.368;2023-10-13T10:14:49;95501.25;;;23.81;33.42
61292;BME280;47165;42.664;23.368;2023-10-13T10:17:06;95485.88;;;24.01;33.12
61292;BME280;47165;42.664;23.368;2023-10-13T10:19:49;95483.94;;;24.11;32.33
61292;BME280;47165;42.664;23.368;2023-10-13T10:22:25;95479.72;;;24.35;31.53
61292;BME280;47165;42.664;23.368;2023-10-13T10:25:05;95475.63;;;24.57;31.21
61292;BME280;47165;42.664;23.368;2023-10-13T10:27:57;95477.44;;;25.15;31.09
61292;BME280;47165;42.664;23.368;2023-10-13T10:30:27;95468.63;;;25.47;30.37
61292;BME280;47165;42.664;23.368;2023-10-13T10:32:56;95461.94;;;25.68;29.21
61292;BME280;47165;42.664;23.368;2023-10-13T10:35:43;95465.56;;;26.00;29.02
61292;BME280;47165;42.664;23.368;2023-10-13T10:38:18;95467.63;;;26.29;28.39
61292;BME280;47165;42.664;23.368;2023-10-13T10:41:05;95459.16;;;26.57;28.11
61292;BME280;47165;42.664;23.368;2023-10-13T10:46:26;95458.50;;;27.40;27.26
61292;BME280;47165;42.664;23.368;2023-10-13T10:48:56;95460.09;;;27.87;27.47
61292;BME280;47165;42.664;23.368;2023-10-13T10:51:27;95461.13;;;28.31;25.81
61292;BME280;47165;42.664;23.368;2023-10-13T10:54:00;95460.34;;;28.67;25.83
61292;BME280;47165;42.664;23.368;2023-10-13T10:56:38;95452.06;;;29.20;23.95
61292;BME280;47165;42.664;23.368;2023-10-13T10:59:06;95449.19;;;29.93;24.51
61292;BME280;47165;42.664;23.368;2023-10-13T11:01:45;95457.09;;;30.71;23.87
61292;BME280;47165;42.664;23.368;2023-10-13T11:04:18;95457.25;;;31.17;22.45
61292;BME280;47165;42.664;23.368;2023-10-13T11:06:56;95451.91;;;31.44;21.81
61292;BME280;47165;42.664;23.368;2023-10-13T11:09:30;95447.31;;;31.24;21.39
61292;BME280;47165;42.664;23.368;2023-10-13T11:12:15;95436.94;;;31.41;21.16
61292;BME280;47165;42.664;23.368;2023-10-13T11:14:45;95440.91;;;31.72;20.30
61292;BME280;47165;42.664;23.368;2023-10-13T11:17:21;95424.06;;;32.10;20.14
61292;BME280;47165;42.664;23.368;2023-10-13T11:19:52;95431.81;;;32.72;19.71
61292;BME280;47165;42.664;23.368;2023-10-13T11:22:20;95426.19;;;33.43;19.31
61292;BME280;47165;42.664;23.368;2023-10-13T11:24:59;95420.59;;;34.14;18.09
61292;BME280;47165;42.664;23.368;2023-10-13T11:27:31;95416.09;;;34.81;17.67
61292;BME280;47165;42.664;23.368;2023-10-13T11:30:12;95417.25;;;35.34;17.27
61292;BME280;47165;42.664;23.368;2023-10-13T11:32:41;95412.59;;;35.65;16.81
61292;BME280;47165;42.664;23.368;2023-10-13T11:35:09;95413.31;;;36.19;17.07
61292;BME280;47165;42.664;23.368;2023-10-13T11:37:47;95405.69;;;36.69;16.22
61292;BME280;47165;42.664;23.368;2023-10-13T11:40:38;95401.44;;;36.90;16.09
61292;BME280;47165;42.664;23.368;2023-10-13T11:43:31;95399.66;;;36.67;15.69
61292;BME280;47165;42.664;23.368;2023-10-13T11:46:25;95395.59;;;36.29;15.73
61292;BME280;47165;42.664;23.368;2023-10-13T11:49:10;95396.06;;;36.78;16.18
61292;BME280;47165;42.664;23.368;2023-10-13T11:51:41;95393.59;;;37.05;15.77
61292;BME280;47165;42.664;23.368;2023-10-13T11:54:17;95390.16;;;37.27;15.66
61292;BME280;47165;42.664;23.368;2023-10-13T11:56:47;95389.47;;;37.31;15.12
61292;BME280;47165;42.664;23.368;2023-10-13T11:59:14;95385.56;;;37.44;15.08
61292;BME280;47165;42.664;23.368;2023-10-13T12:01:49;95390.72;;;37.74;14.93
61292;BME280;47165;42.664;23.368;2023-10-13T12:04:35;95383.22;;;38.20;14.57
61292;BME280;47165;42.664;23.368;2023-10-13T12:07:21;95365.94;;;38.54;14.07
61292;BME280;47165;42.664;23.368;2023-10-13T12:09:50;95368.78;;;38.86;13.93
61292;BME280;47165;42.664;23.368;2023-10-13T12:12:26;95369.66;;;39.19;13.96
61292;BME280;47165;42.664;23.368;2023-10-13T12:14:53;95367.19;;;39.17;13.70
61292;BME280;47165;42.664;23.368;2023-10-13T12:17:27;95370.72;;;38.91;13.71
61292;BME280;47165;42.664;23.368;2023-10-13T12:20:06;95367.75;;;38.92;13.66
61292;BME280;47165;42.664;23.368;2023-10-13T12:22:36;95354.38;;;38.47;13.57
61292;BME280;47165;42.664;23.368;2023-10-13T12:25:09;95363.50;;;38.52;13.93
61292;BME280;47165;42.664;23.368;2023-10-13T12:27:54;95365.69;;;38.55;13.99
61292;BME280;47165;42.664;23.368;2023-10-13T12:30:24;95363.09;;;38.66;13.85
61292;BME280;47165;42.664;23.368;2023-10-13T12:33:14;95358.09;;;38.84;13.73
61292;BME280;47165;42.664;23.368;2023-10-13T12:38:52;95352.88;;;39.32;13.89
61292;BME280;47165;42.664;23.368;2023-10-13T12:41:38;95353.06;;;39.26;13.04
61292;BME280;47165;42.664;23.368;2023-10-13T12:44:22;95350.84;;;39.50;13.12
61292;BME280;47165;42.664;23.368;2023-10-13T12:47:06;95349.16;;;39.43;13.14
61292;BME280;47165;42.664;23.368;2023-10-13T12:49:51;95347.75;;;39.78;13.26
61292;BME280;47165;42.664;23.368;2023-10-13T12:52:37;95344.31;;;39.93;13.29
61292;BME280;47165;42.664;23.368;2023-10-13T12:55:03;95341.00;;;40.34;13.02
61292;BME280;47165;42.664;23.368;2023-10-13T12:57:32;95343.34;;;40.68;12.75
61292;BME280;47165;42.664;23.368;2023-10-13T12:59:59;95348.59;;;40.90;12.68
61292;BME280;47165;42.664;23.368;2023-10-13T13:02:26;95341.28;;;41.11;12.82
61292;BME280;47165;42.664;23.368;2023-10-13T13:04:54;95339.84;;;40.98;12.04
61292;BME280;47165;42.664;23.368;2023-10-13T13:07:23;95328.66;;;41.15;12.17
61292;BME280;47165;42.664;23.368;2023-10-13T13:09:55;95328.13;;;41.13;12.03
61292;BME280;47165;42.664;23.368;2023-10-13T13:12:27;95344.06;;;41.31;12.42
61292;BME280;47165;42.664;23.368;2023-10-13T13:14:55;95335.25;;;41.45;12.35
61292;BME280;47165;42.664;23.368;2023-10-13T13:17:21;95315.25;;;41.29;11.87
61292;BME280;47165;42.664;23.368;2023-10-13T13:19:47;95338.03;;;41.50;11.95
61292;BME280;47165;42.664;23.368;2023-10-13T13:22:13;95338.28;;;41.64;12.03
61292;BME280;47165;42.664;23.368;2023-10-13T13:24:40;95338.56;;;41.41;11.59
61292;BME280;47165;42.664;23.368;2023-10-13T13:27:11;95343.50;;;41.45;11.44
61292;BME280;47165;42.664;23.368;2023-10-13T13:29:43;95335.19;;;40.93;11.33
61292;BME280;47165;42.664;23.368;2023-10-13T13:32:09;95331.63;;;40.88;11.63
61292;BME280;47165;42.664;23.368;2023-10-13T13:34:44;95341.59;;;40.41;12.22
61292;BME280;47165;42.664;23.368;2023-10-13T13:37:19;95335.81;;;40.32;11.94
61292;BME280;47165;42.664;23.368;2023-10-13T13:39:45;95342.06;;;40.28;12.50
61292;BME280;47165;42.664;23.368;2023-10-13T13:42:12;95338.28;;;40.34;12.40
61292;BME280;47165;42.664;23.368;2023-10-13T13:44:44;95335.31;;;40.46;12.39
61292;BME280;47165;42.664;23.368;2023-10-13T13:47:13;95338.38;;;40.65;12.68
61292;BME280;47165;42.664;23.368;2023-10-13T13:49:42;95338.97;;;40.72;12.73
61292;BME280;47165;42.664;23.368;2023-10-13T13:52:19;95331.88;;;40.81;12.83